METAR és
SPECI
METAR LHBP 011330Z 02006KT 280V080 CAVOK 26/04 Q1018 NOSIG=
METAR LHBP 011300Z VRB03KT CAVOK 26/05 Q1018 NOSIG=
METAR LHBP 011230Z 13007KT 090V170 CAVOK 26/06 Q1018 NOSIG=
METAR LHBP 011200Z 06004KT CAVOK 26/05 Q1018 NOSIG=
METAR LHBP 011130Z VRB02KT CAVOK 26/08 Q1019 NOSIG=
METAR LHBP 011100Z 08005KT 020V110 CAVOK 25/04 Q1019 NOSIG=
TAF
TAF LHBP 011100Z 0112/0212 10007KT CAVOK BECMG 0116/0119 VRB03KT BECMG 0123/0202 07007KT PROB40 TEMPO 0206/0212 SHRA SCT020 BKN080=
GAMET
FAHU41 LHBM 011100
LHCC GAMET VALID 011200/011800 LHBP-
BUDAPEST FIR BLW FL100
SECN I
HAZARDOUS WX NIL=
OMSZ: 2015. augusztus 1. 12:48 (10:48  UTC)
[FAHU41]
AIRMET
Nincs érvényes távirat! 
WAHU41 LHBM 250615
LHCC AIRMET 01 VALID 250615/251000 LHBP-
LHCC BUDAPEST FIR ISOL TS OBS AT 0615Z N OF N4625 AND W OF
E01717 TOP FL280 MOV NNE WKN=
OMSZ: 2015. július 25. 08:24 (06:24  UTC)
[WAHU41]
SIGMET
Nincs érvényes távirat! 
WSHU31 LHBM 300200
LHCC SIGMET 01 VALID 300200/300330 LHBP-
LHCC BUDAPEST FIR EMBD TS OBS AT 0200Z SE OF LINE
N4603 E01921 - N4734 E02206 TOP FL300 MOV NE WKN=
OMSZ: 2015. július 30. 04:12 (02:12  UTC)
[WSHU31]
SIGMET
Vulkáni hamufelhő
Nincs érvényes távirat! 
WVHU31 LHBM 271515 CCA
LHCC SIGMET 03 VALID 271515/271800 LHBP-
LHCC BUDAPEST FIR EXERCISE VOLCEX12/01
CNL VA SIGMET 02 271200/271800
EXERCISE EXERCISE EXERCISE VOLCEX12/01=
OMSZ: 2015. április 14. 15:15 (13:15  UTC)
[WVHU31]